M I D A S
Marine Information and Data Acquisition System
Tripno 2293 of the Zeeleeuw from 2012-04-19 13:09:01 to 2012-04-19 13:09:03
Back to CruiseResearch ActivitiesStationsMapUnderway DataData graphs

EquipmentUnitsComments
TimeDGPSUTC
LatitudeDGPSDM.mWGS84
LongitudeDGPSDM.mWGS84
SpeedMeteo Stationm/sRelative wind speed
DirectionMeteo StationdegRelative wind direction
TemperatureMeteo Stationdeg CelciusAir temperature
PressureMeteo StationPaAtmospheric pressure
HumidityMeteo Station%Relative humidity
Missing or incorrect values are displayed as -999
Metereological data collected by the RV Zeeleeuw from 2012-04-19 08:09:03 to 2012-04-19 13:27:47
Time Latitude Longitude Speed Direction Temperature Pressure Humidity
2012-04-19 08:10 51°26.098 2°48.606 10.7 259 7.6 98410 47
2012-04-19 08:11 51°26.108 2°48.557 9 267 7.7 98420 48
2012-04-19 08:12 51°26.109 2°48.552 11.1 267 7.6 98440 47
2012-04-19 08:13 51°26.109 2°48.549 8.8 269 7.6 98420 48
2012-04-19 08:14 51°26.109 2°48.546 4 265 7.7 98420 47
2012-04-19 08:15 51°26.11 2°48.545 6.4 265 7.7 98420 46
2012-04-19 08:16 51°26.112 2°48.543 7.4 264 7.7 98430 48
2012-04-19 08:17 51°26.113 2°48.541 5.1 264 7.7 98430 47
2012-04-19 08:18 51°26.115 2°48.538 10.3 267 7.7 98440 46
2012-04-19 08:19 51°26.117 2°48.535 4.7 263 7.7 98440 48
2012-04-19 08:20 51°26.12 2°48.533 10.9 264 7.7 98460 47
2012-04-19 08:21 51°26.122 2°48.532 4 268 7.8 98440 47
2012-04-19 08:22 51°26.125 2°48.53 4.2 267 7.7 98440 48
2012-04-19 08:23 51°26.129 2°48.526 10.8 264 7.8 98470 46
2012-04-19 08:24 51°26.131 2°48.524 12.9 263 7.8 98460 47
2012-04-19 08:25 51°26.134 2°48.524 4.4 268 7.8 98450 46
2012-04-19 08:26 51°26.135 2°48.525 8.5 267 7.8 98450 48
2012-04-19 08:27 51°26.137 2°48.527 5 267 7.8 98460 48
2012-04-19 08:28 51°26.139 2°48.528 5.4 268 7.8 98460 48
2012-04-19 08:29 51°26.142 2°48.529 4.9 268 7.8 98460 48
2012-04-19 08:30 51°26.147 2°48.531 7.6 266 7.8 98460 47
2012-04-19 08:31 51°26.151 2°48.536 4.7 266 7.8 98460 47
2012-04-19 08:32 51°26.153 2°48.54 9.9 265 7.9 98460 48
2012-04-19 08:33 51°26.156 2°48.544 9.7 269 7.9 98480 46
2012-04-19 08:34 51°26.158 2°48.547 4.3 268 7.9 98460 48
2012-04-19 08:35 51°26.161 2°48.552 2.6 265 7.8 98460 46
2012-04-19 08:36 51°26.164 2°48.556 8.1 265 7.9 98460 48
2012-04-19 08:37 51°26.166 2°48.558 11 263 7.9 98470 48
2012-04-19 08:38 51°26.169 2°48.562 7.9 267 7.9 98470 48
2012-04-19 08:39 51°26.172 2°48.567 4.7 266 7.9 98480 47
2012-04-19 08:40 51°26.176 2°48.573 7.5 264 7.8 98470 47
2012-04-19 08:41 51°26.179 2°48.579 9.2 263 7.9 98460 48
2012-04-19 08:42 51°26.182 2°48.588 7.5 265 7.8 98470 47
2012-04-19 08:43 51°26.184 2°48.596 8.5 269 7.8 98470 47
2012-04-19 08:44 51°26.187 2°48.6 6.2 267 7.9 98460 48
2012-04-19 08:45 51°26.19 2°48.603 8.7 266 7.9 98470 47
2012-04-19 08:46 51°26.195 2°48.606 10.5 265 7.8 98500 47
2012-04-19 08:47 51°26.2 2°48.609 10.7 263 7.8 98490 47
2012-04-19 08:48 51°26.207 2°48.615 8.9 264 7.9 98480 48
2012-04-19 08:49 51°26.213 2°48.621 8.7 266 7.9 98470 48
2012-04-19 08:50 51°26.218 2°48.63 7.3 266 7.9 98470 47
2012-04-19 08:51 51°26.222 2°48.638 5.2 265 7.9 98450 48
2012-04-19 08:52 51°26.226 2°48.647 10.7 268 7.9 98440 47
2012-04-19 08:53 51°26.23 2°48.656 4.4 266 7.9 98450 48
2012-04-19 08:54 51°26.235 2°48.665 8.3 266 7.9 98450 47
2012-04-19 08:55 51°26.24 2°48.673 4 267 7.9 98440 47
2012-04-19 08:56 51°26.246 2°48.682 7.4 266 7.9 98450 47
2012-04-19 08:57 51°26.252 2°48.693 9.7 262 7.9 98450 48
2012-04-19 08:58 51°26.257 2°48.704 10.2 265 7.9 98450 47
2012-04-19 08:59 51°26.264 2°48.717 9.2 264 7.9 98450 48
2012-04-19 09:00 51°26.271 2°48.729 7.8 266 7.9 98450 48
2012-04-19 09:01 51°26.276 2°48.744 8.8 270 7.9 98460 48
2012-04-19 09:02 51°26.282 2°48.757 3.9 266 7.9 98450 48
2012-04-19 09:03 51°26.288 2°48.768 5.4 266 7.9 98440 48
2012-04-19 09:04 51°26.295 2°48.781 9.1 43 8 98460 47
2012-04-19 09:05 51°26.301 2°48.795 4.4 267 8 98450 48
2012-04-19 09:06 51°26.307 2°48.812 10 269 8 98450 49
2012-04-19 09:07 51°26.313 2°48.83 5.8 264 8 98460 48
2012-04-19 09:08 51°26.318 2°48.85 4.8 270 8 98450 47
2012-04-19 09:09 51°26.324 2°48.868 4.4 24 7.9 98450 47
2012-04-19 09:10 51°26.331 2°48.885 4.7 268 7.9 98450 48
2012-04-19 09:11 51°26.34 2°48.9 4.4 263 7.9 98460 47
2012-04-19 09:12 51°26.348 2°48.918 9.6 265 7.9 98460 47
2012-04-19 09:13 51°26.355 2°48.94 8.6 268 7.9 98450 47
2012-04-19 09:14 51°26.363 2°48.96 5.6 265 8 98460 47
2012-04-19 09:15 51°26.371 2°48.981 7.1 265 7.9 98470 46
2012-04-19 09:16 51°26.38 2°48.999 4.8 270 8 98470 48
2012-04-19 09:17 51°26.389 2°49.015 5.8 266 8 98470 47
2012-04-19 09:18 51°26.398 2°49.033 9.7 262 8 98460 48
2012-04-19 09:19 51°26.41 2°49.043 11.2 257 8 98470 47
2012-04-19 09:20 51°26.419 2°49.021 10.5 19 8.1 98470 47
2012-04-19 09:21 51°26.414 2°48.984 12.2 21 8.1 98450 47
2012-04-19 09:22 51°26.397 2°48.915 13.3 21 8 98430 47
2012-04-19 09:23 51°26.377 2°48.831 11.2 28 8 98430 47
2012-04-19 09:24 51°26.35 2°48.746 12 23 8.1 98450 48
2012-04-19 09:25 51°26.311 2°48.636 14.8 25 8 98430 47
2012-04-19 09:26 51°26.229 2°48.434 7.1 24 8 98430 47
2012-04-19 09:27 51°26.135 2°48.179 19.7 24 8 98410 47
2012-04-19 09:28 51°26.043 2°47.902 5.5 23 8.1 98420 47
2012-04-19 09:29 51°25.939 2°47.647 16.4 23 8.1 98420 48
2012-04-19 09:30 51°25.824 2°47.401 9.1 23 8.1 98400 47
2012-04-19 09:31 51°25.72 2°47.144 14.6 23 8.1 98410 47
2012-04-19 09:32 51°25.624 2°46.891 4.1 316 8.2 98420 48
2012-04-19 09:33 51°25.514 2°46.647 19.3 316 8.2 98410 47
2012-04-19 09:34 51°25.416 2°46.4 11.2 315 8.1 98400 47
2012-04-19 09:35 51°25.313 2°46.147 18.7 24 8.2 98410 47
2012-04-19 09:36 51°25.201 2°45.911 7.5 317 8.2 98410 47
2012-04-19 09:37 51°25.101 2°45.661 7.4 24 8.2 98410 47
2012-04-19 09:38 51°25.002 2°45.412 16 20 8.2 98420 48
2012-04-19 09:39 51°24.893 2°45.175 4.2 316 8.2 98380 48
2012-04-19 09:40 51°24.789 2°44.931 15.9 21 8.2 98400 47
2012-04-19 09:41 51°24.693 2°44.68 8.6 24 8.1 98390 47
2012-04-19 09:42 51°24.587 2°44.44 11.9 315 8.1 98400 48
2012-04-19 09:43 51°24.48 2°44.203 18.1 21 8.1 98400 48
2012-04-19 09:44 51°24.381 2°43.958 11.8 23 8.2 98410 47
2012-04-19 09:45 51°24.278 2°43.717 5.6 24 8.1 98400 47
2012-04-19 09:46 51°24.17 2°43.485 6.9 26 8.2 98390 48
2012-04-19 09:47 51°24.071 2°43.244 12.1 316 8.2 98420 47
2012-04-19 09:48 51°23.973 2°43.004 5.1 23 8.2 98400 47
2012-04-19 09:49 51°23.869 2°42.77 16.2 316 8.2 98420 47
2012-04-19 09:50 51°23.765 2°42.534 16.3 22 8.3 98420 48
2012-04-19 09:51 51°23.663 2°42.298 14.6 315 8.3 98400 48
2012-04-19 09:52 51°23.568 2°42.057 20.1 24 8.4 98420 47
2012-04-19 09:53 51°23.465 2°41.828 13.3 316 8.3 98410 46
2012-04-19 09:54 51°23.361 2°41.597 12.2 19 8.3 98420 48
2012-04-19 09:55 51°23.255 2°41.369 5.5 25 8.2 98400 47
2012-04-19 09:56 51°23.136 2°41.161 14.3 317 8.3 98410 46
2012-04-19 09:57 51°23.024 2°40.945 18.4 24 8.3 98410 47
2012-04-19 09:58 51°22.909 2°40.721 16.3 316 8.3 98410 47
2012-04-19 09:59 51°22.799 2°40.504 7.3 318 8.3 98400 47
2012-04-19 10:00 51°22.669 2°40.308 5.1 317 8.3 98420 47
2012-04-19 10:01 51°22.53 2°40.145 16.7 321 8.4 98430 48
2012-04-19 10:02 51°22.385 2°39.977 14.8 319 8.3 98420 48
2012-04-19 10:03 51°22.237 2°39.82 17 320 8.3 98420 47
2012-04-19 10:04 51°22.078 2°39.691 7 324 8.3 98440 48
2012-04-19 10:05 51°21.898 2°39.649 15.9 330 8.4 98440 47
2012-04-19 10:06 51°21.714 2°39.643 15.3 330 8.3 98430 48
2012-04-19 10:07 51°21.53 2°39.62 15.5 329 8.4 98450 47
2012-04-19 10:08 51°21.349 2°39.575 7.5 329 8.4 98440 48
2012-04-19 10:09 51°21.168 2°39.542 5.5 329 8.4 98440 47
2012-04-19 10:10 51°20.989 2°39.51 7.2 327 8.4 98440 47
2012-04-19 10:11 51°20.804 2°39.471 20.3 327 8.5 98440 47
2012-04-19 10:12 51°20.622 2°39.429 15.6 330 8.5 98450 47
2012-04-19 10:13 51°20.439 2°39.402 17.5 327 8.5 98440 46
2012-04-19 10:14 51°20.259 2°39.36 17.2 330 8.5 98450 47
2012-04-19 10:15 51°20.081 2°39.331 13.3 332 8.5 98450 47
2012-04-19 10:16 51°19.901 2°39.279 11.8 329 8.5 98460 47
2012-04-19 10:17 51°19.722 2°39.24 15.1 329 8.5 98460 46
2012-04-19 10:18 51°19.545 2°39.203 10.4 331 8.4 98450 46
2012-04-19 10:19 51°19.371 2°39.156 13.1 330 8.4 98450 47
2012-04-19 10:20 51°19.19 2°39.118 19.5 331 8.4 98450 45
2012-04-19 10:21 51°19.011 2°39.08 16.5 330 8.4 98460 46
2012-04-19 10:22 51°18.834 2°39.042 10.4 336 8.3 98460 46
2012-04-19 10:23 51°18.657 2°39.13 17.7 341 8.4 98450 47
2012-04-19 10:24 51°18.48 2°39.245 7.7 342 8.3 98460 46
2012-04-19 10:25 51°18.301 2°39.352 20 340 8.3 98460 47
2012-04-19 10:26 51°18.122 2°39.444 13.2 341 8.4 98470 47
2012-04-19 10:27 51°17.942 2°39.528 16.1 341 8.4 98480 47
2012-04-19 10:28 51°17.763 2°39.638 13.2 349 8.4 98490 45
2012-04-19 10:29 51°17.578 2°39.74 16.6 350 8.4 98500 47
2012-04-19 10:30 51°17.39 2°39.835 12.8 352 8 98490 43
2012-04-19 10:31 51°17.198 2°39.914 9.6 349 7.5 98490 45
2012-04-19 10:32 51°17.005 2°39.936 13.5 349 7.3 98490 45
2012-04-19 10:33 51°16.813 2°39.987 8.6 353 7.1 98500 46
2012-04-19 10:34 51°16.627 2°40.092 7.7 356 7 98500 46
2012-04-19 10:35 51°16.443 2°40.208 14 351 7 98510 46
2012-04-19 10:36 51°16.261 2°40.317 10.6 353 7 98510 45
2012-04-19 10:37 51°16.082 2°40.357 13 354 7 98510 47
2012-04-19 10:38 51°15.895 2°40.378 13.2 353 7 98490 46
2012-04-19 10:39 51°15.713 2°40.361 9.4 346 7 98500 47
2012-04-19 10:40 51°15.54 2°40.287 8.8 346 7.1 98510 47
2012-04-19 10:41 51°15.367 2°40.213 9.2 344 7.1 98520 47
2012-04-19 10:42 51°15.198 2°40.142 11.2 344 7.2 98510 49
2012-04-19 10:43 51°15.018 2°40.089 9.7 342 7.3 98520 48
2012-04-19 10:44 51°14.845 2°40.017 12.1 342 7.5 98520 47
2012-04-19 10:45 51°14.667 2°39.944 9.8 341 7.6 98510 49
2012-04-19 10:46 51°14.486 2°39.893 8.7 342 7.7 98510 49
2012-04-19 10:47 51°14.306 2°39.831 10.6 339 7.8 98510 48
2012-04-19 10:48 51°14.126 2°39.767 9.5 338 7.9 98520 48
2012-04-19 10:49 51°13.957 2°39.654 11.2 338 8 98510 48
2012-04-19 10:50 51°13.79 2°39.533 9.6 338 8.2 98510 48
2012-04-19 10:51 51°13.619 2°39.428 13.5 339 8.3 98500 47
2012-04-19 10:52 51°13.443 2°39.336 10.3 340 8.4 98500 47
2012-04-19 10:53 51°13.273 2°39.241 8.8 336 8.5 98510 47
2012-04-19 10:54 51°13.12 2°39.086 11.3 335 8.6 98510 46
2012-04-19 10:55 51°12.987 2°38.897 9.4 332 8.6 98510 46
2012-04-19 10:56 51°12.853 2°38.711 12.1 328 8.7 98510 46
2012-04-19 10:57 51°12.711 2°38.54 13.2 330 8.7 98510 46
2012-04-19 10:58 51°12.566 2°38.373 15.2 325 8.7 98490 45
2012-04-19 10:59 51°12.431 2°38.188 14.1 322 8.7 98460 44
2012-04-19 11:00 51°12.288 2°38.022 17.6 323 8.8 98470 44
2012-04-19 11:01 51°12.143 2°37.854 13.8 328 8.8 98510 45
2012-04-19 11:02 51°12 2°37.686 15.4 323 8.8 98500 44
2012-04-19 11:03 51°11.867 2°37.499 17.1 324 8.7 98510 45
2012-04-19 11:04 51°11.726 2°37.333 11.9 327 8.7 98520 45
2012-04-19 11:05 51°11.579 2°37.161 15.8 327 8.6 98530 45
2012-04-19 11:06 51°11.441 2°36.979 14.2 329 8.4 98520 46
2012-04-19 11:07 51°11.297 2°36.804 13.3 333 8.2 98530 44
2012-04-19 11:08 51°11.148 2°36.639 11.9 334 8 98540 44
2012-04-19 11:09 51°11.001 2°36.472 10.1 325 8 98540 43
2012-04-19 11:10 51°10.863 2°36.287 11.1 327 8.2 98540 44
2012-04-19 11:11 51°10.72 2°36.114 13.2 324 8.4 98520 46
2012-04-19 11:12 51°10.574 2°35.95 16.4 324 8.4 98520 46
2012-04-19 11:13 51°10.439 2°35.77 10.8 322 8.4 98520 47
2012-04-19 11:14 51°10.299 2°35.598 12.9 320 8.5 98530 46
2012-04-19 11:15 51°10.149 2°35.452 13 327 8.4 98530 46
2012-04-19 11:16 51°9.97 2°35.475 13.3 338 8.4 98530 46
2012-04-19 11:17 51°9.836 2°35.654 12.2 351 8.4 98520 47
2012-04-19 11:18 51°9.733 2°35.896 10.4 351 8.3 98520 46
2012-04-19 11:19 51°9.637 2°36.153 10.4 352 8.2 98520 46
2012-04-19 11:20 51°9.539 2°36.411 10.3 352 8.3 98520 46
2012-04-19 11:21 51°9.444 2°36.675 6.3 354 8.2 98530 46
2012-04-19 11:22 51°9.348 2°36.942 11.2 352 8.3 98520 45
2012-04-19 11:23 51°9.261 2°37.168 7.7 351 8.3 98530 46
2012-04-19 11:24 51°9.201 2°37.305 8.8 343 8.3 98530 45
2012-04-19 11:25 51°9.164 2°37.337 9.2 317 8.3 98540 45
2012-04-19 11:26 51°9.121 2°37.284 9.5 24 8.4 98540 46
2012-04-19 11:27 51°9.074 2°37.162 8.4 24 8.5 98540 46
2012-04-19 11:28 51°9.024 2°37.077 9.1 22 8.5 98540 46
2012-04-19 11:29 51°9.022 2°37.062 7 251 8.6 98550 45
2012-04-19 11:30 51°9.039 2°37.068 7.1 259 8.7 98550 46
2012-04-19 11:31 51°9.059 2°37.082 7.8 262 8.8 98550 46
2012-04-19 11:32 51°9.079 2°37.098 6 261 8.8 98560 44
2012-04-19 11:33 51°9.097 2°37.119 8.4 255 8.9 98550 46
2012-04-19 11:34 51°9.115 2°37.144 8.1 255 9 98550 46
2012-04-19 11:35 51°9.135 2°37.172 10.1 258 9.1 98550 46
2012-04-19 11:36 51°9.156 2°37.192 8.5 252 9.2 98560 46
2012-04-19 11:37 51°9.173 2°37.198 10.6 248 9.2 98550 46
2012-04-19 11:38 51°9.183 2°37.2 11 24 9.3 98550 44
2012-04-19 11:39 51°9.188 2°37.198 7.9 23 9.3 98550 45
2012-04-19 11:40 51°9.186 2°37.18 9.9 26 9.3 98540 44
2012-04-19 11:41 51°9.168 2°37.151 10.9 24 9.2 98530 44
2012-04-19 11:42 51°9.166 2°37.146 10.5 20 9.2 98550 45
2012-04-19 11:43 51°9.174 2°37.148 9.8 19 9.1 98570 45
2012-04-19 11:44 51°9.184 2°37.152 10 19 9.1 98560 46
2012-04-19 11:45 51°9.186 2°37.153 10.5 18 9.1 98550 45
2012-04-19 11:46 51°9.184 2°37.146 9.5 24 9.1 98570 45
2012-04-19 11:47 51°9.18 2°37.141 11 323 8.9 98540 47
2012-04-19 11:48 51°9.173 2°37.142 9.5 321 8.9 98550 46
2012-04-19 11:49 51°9.165 2°37.141 11.1 318 8.8 98540 47
2012-04-19 11:50 51°9.166 2°37.14 11.5 317 8.6 98550 47
2012-04-19 11:51 51°9.172 2°37.139 8.1 28 8.7 98540 48
2012-04-19 11:52 51°9.181 2°37.139 11.1 24 8.5 98550 47
2012-04-19 11:53 51°9.191 2°37.141 9 316 8.4 98550 45
2012-04-19 11:54 51°9.2 2°37.147 9.7 321 8.4 98550 46
2012-04-19 11:55 51°9.204 2°37.155 7.7 329 8.4 98570 46
2012-04-19 11:56 51°9.188 2°37.157 9.9 336 8.4 98560 46
2012-04-19 11:57 51°9.158 2°37.136 8.5 325 8.4 98570 46
2012-04-19 11:58 51°9.151 2°37.132 7.5 324 8.5 98570 45
2012-04-19 11:59 51°9.153 2°37.137 8 322 8.5 98570 46
2012-04-19 12:00 51°9.158 2°37.145 6.7 317 8.5 98580 46
2012-04-19 12:01 51°9.165 2°37.151 6.6 318 8.5 98580 46
2012-04-19 12:02 51°9.176 2°37.154 6.5 18 8.5 98570 46
2012-04-19 12:03 51°9.188 2°37.154 9.3 19 8.5 98580 47
2012-04-19 12:04 51°9.196 2°37.155 8.2 26 8.4 98570 45
2012-04-19 12:05 51°9.206 2°37.14 7.8 19 8.3 98570 45
2012-04-19 12:06 51°9.248 2°37.061 8.5 23 8.4 98610 46
2012-04-19 12:07 51°9.327 2°36.85 7 22 8.4 98600 45
2012-04-19 12:08 51°9.468 2°36.628 7.4 20 8.4 98610 46
2012-04-19 12:09 51°9.638 2°36.456 7.6 250 8.4 98600 45
2012-04-19 12:10 51°9.804 2°36.275 6.4 249 8.4 98600 45
2012-04-19 12:11 51°9.979 2°36.117 5.6 253 8.5 98600 45
2012-04-19 12:12 51°10.186 2°36.049 3.2 261 8.5 98590 45
2012-04-19 12:13 51°10.398 2°36.027 2 257 8.5 98600 45
2012-04-19 12:14 51°10.609 2°36.068 1 27 8.6 98600 47
2012-04-19 12:15 51°10.827 2°36.134 1 255 8.7 98600 46
2012-04-19 12:16 51°11.036 2°36.223 -999 325 8.9 98590 47
2012-04-19 12:17 51°11.238 2°36.359 0.1 346 9.1 98600 47
2012-04-19 12:18 51°11.436 2°36.506 -999 319 9.2 98590 47
2012-04-19 12:19 51°11.639 2°36.63 0.1 320 9.4 98600 47
2012-04-19 12:20 51°11.827 2°36.808 1.1 8 9.4 98590 44
2012-04-19 12:21 51°12.011 2°36.998 0.9 8 9.3 98600 44
2012-04-19 12:22 51°12.204 2°37.164 1 16 9.2 98600 46
2012-04-19 12:23 51°12.389 2°37.355 1.1 6 9.2 98600 45
2012-04-19 12:24 51°12.554 2°37.589 4 13 9.1 98590 45
2012-04-19 12:25 51°12.68 2°37.879 5.2 8 8.9 98600 47
2012-04-19 12:26 51°12.793 2°38.181 5.1 8 8.9 98600 46
2012-04-19 12:27 51°12.909 2°38.482 5.2 6 8.8 98600 47
2012-04-19 12:28 51°13.025 2°38.783 5.9 7 8.7 98600 46
2012-04-19 12:29 51°13.106 2°39.11 5.5 4 8.6 98600 46
2012-04-19 12:30 51°13.187 2°39.439 6.5 9 8.6 98600 46
2012-04-19 12:31 51°13.268 2°39.769 5.7 14 8.5 98610 47
2012-04-19 12:32 51°13.356 2°40.095 6.5 20 8.5 98620 46
2012-04-19 12:33 51°13.439 2°40.423 5.5 22 8.5 98630 48
2012-04-19 12:34 51°13.528 2°40.752 2.2 31 8.5 98640 46
2012-04-19 12:35 51°13.615 2°41.082 2.2 27 8.5 98630 48
2012-04-19 12:36 51°13.702 2°41.415 3.1 23 8.3 98630 47
2012-04-19 12:37 51°13.79 2°41.748 5.9 21 8.4 98620 48
2012-04-19 12:38 51°13.885 2°42.079 3.9 7 8.4 98620 49
2012-04-19 12:39 51°13.976 2°42.411 3.4 7 8.4 98620 48
2012-04-19 12:40 51°14.056 2°42.749 3.3 6 8.3 98610 46
2012-04-19 12:41 51°14.119 2°43.094 5.2 5 8.3 98620 48
2012-04-19 12:42 51°14.163 2°43.441 4.5 356 8.3 98620 48
2012-04-19 12:43 51°14.21 2°43.786 3.5 359 8.4 98620 48
2012-04-19 12:44 51°14.267 2°44.129 5.1 -999 8.5 98620 47
2012-04-19 12:45 51°14.316 2°44.472 5.4 357 8.5 98620 46
2012-04-19 12:46 51°14.367 2°44.813 4.6 356 8.5 98630 46
2012-04-19 12:47 51°14.427 2°45.147 3.8 354 8.6 98630 47
2012-04-19 12:48 51°14.473 2°45.483 5.2 357 8.6 98610 46
2012-04-19 12:49 51°14.525 2°45.819 4.1 4 8.7 98620 47
2012-04-19 12:50 51°14.578 2°46.158 4.3 356 8.7 98620 47
2012-04-19 12:51 51°14.631 2°46.497 4.7 357 8.7 98630 47
2012-04-19 12:52 51°14.694 2°46.837 4.5 2 8.8 98630 44
2012-04-19 12:53 51°14.749 2°47.183 3.8 360 8.8 98630 46
2012-04-19 12:54 51°14.775 2°47.533 4.2 3 8.8 98630 48
2012-04-19 12:55 51°14.798 2°47.877 4.3 6 8.8 98630 48
2012-04-19 12:56 51°14.83 2°48.218 5.2 8 8.9 98640 46
2012-04-19 12:57 51°14.872 2°48.553 4.5 7 8.9 98640 47
2012-04-19 12:58 51°14.905 2°48.903 4.6 4 9 98640 48
2012-04-19 12:59 51°14.926 2°49.253 4.9 7 9 98640 46
2012-04-19 13:00 51°14.95 2°49.602 5.2 7 9 98640 46
2012-04-19 13:01 51°14.988 2°49.947 4.9 12 9.1 98640 47
2012-04-19 13:02 51°15.032 2°50.288 4.5 7 9.2 98650 47
2012-04-19 13:03 51°15.012 2°50.627 6.7 357 9.2 98650 46
2012-04-19 13:04 51°14.992 2°50.97 6.7 1 9.3 98650 47
2012-04-19 13:05 51°14.983 2°51.316 6.6 359 9.2 98640 46
2012-04-19 13:06 51°14.987 2°51.658 5.8 1 9.2 98650 46
2012-04-19 13:07 51°14.999 2°52.002 6.1 4 9.1 98650 47
2012-04-19 13:08 51°15.015 2°52.339 6 -999 9.1 98650 44
2012-04-19 13:09 51°15.034 2°52.684 5.8 359 9.2 98630 47
2012-04-19 13:10 51°15.053 2°53.018 5.2 -999 9.3 98640 47
2012-04-19 13:11 51°15.065 2°53.366 5 354 9.3 98640 46
2012-04-19 13:12 51°15.023 2°53.697 7.4 353 9.3 98640 47
2012-04-19 13:13 51°14.949 2°54.007 9.2 357 9.3 98630 47
2012-04-19 13:14 51°14.866 2°54.313 12.2 353 9.4 98610 45
2012-04-19 13:15 51°14.773 2°54.608 11.8 355 9.7 98570 44
2012-04-19 13:16 51°14.659 2°54.87 10.4 351 9.9 98580 41
2012-04-19 13:17 51°14.515 2°55.068 7 352 10.1 98610 43
2012-04-19 13:18 51°14.362 2°55.222 11.7 347 10.2 98620 44
2012-04-19 13:19 51°14.229 2°55.334 9.8 337 10.3 98630 43
2012-04-19 13:20 51°14.108 2°55.428 9.8 339 10.4 98630 42
2012-04-19 13:21 51°14 2°55.507 10.3 335 10.5 98640 44
2012-04-19 13:22 51°13.91 2°55.575 7.8 338 10.6 98640 42
2012-04-19 13:23 51°13.82 2°55.643 10 338 10.6 98650 44
2012-04-19 13:24 51°13.736 2°55.728 7.9 351 10.6 98640 42
2012-04-19 13:25 51°13.683 2°55.834 9.4 359 10.4 98650 44
2012-04-19 13:26 51°13.65 2°55.936 6.3 347 10.3 98660 45
2012-04-19 13:27 51°13.638 2°56.016 7.1 14 10.2 98660 44